createdAt,value
2024-05-09T00:00:35.240Z,9.80
2024-05-09T00:03:07.406Z,9.79
2024-05-09T00:05:34.549Z,9.70
2024-05-09T00:08:01.465Z,9.66
2024-05-09T00:10:35.555Z,9.56
2024-05-09T00:13:05.235Z,9.56
2024-05-09T00:15:33.354Z,9.55
2024-05-09T00:18:00.364Z,9.48
2024-05-09T00:20:35.282Z,9.47
2024-05-09T00:23:06.920Z,9.49
2024-05-09T00:25:33.871Z,9.46
2024-05-09T00:28:00.522Z,9.41
2024-05-09T00:30:33.609Z,9.38
2024-05-09T00:33:03.208Z,9.28
2024-05-09T00:35:30.386Z,9.31
2024-05-09T00:37:57.151Z,9.24
2024-05-09T00:40:34.790Z,9.21
2024-05-09T00:43:05.957Z,9.18
2024-05-09T00:45:36.652Z,9.14
2024-05-09T00:48:08.033Z,9.10
2024-05-09T00:50:39.858Z,9.05
2024-05-09T00:53:09.920Z,8.97
2024-05-09T00:55:38.968Z,8.97
2024-05-09T00:58:07.718Z,8.98
2024-05-09T01:00:39.256Z,8.94
2024-05-09T01:03:13.046Z,8.91
2024-05-09T01:05:41.462Z,8.83
2024-05-09T01:08:09.964Z,8.83
2024-05-09T01:10:37.895Z,8.78
2024-05-09T01:13:05.622Z,8.69
2024-05-09T01:15:33.271Z,8.64
2024-05-09T01:18:26.740Z,8.65
2024-05-09T01:20:53.370Z,8.64
2024-05-09T01:23:19.974Z,8.69
2024-05-09T01:25:47.089Z,8.60
2024-05-09T01:28:15.036Z,8.57
2024-05-09T01:30:41.744Z,8.61
2024-05-09T01:33:10.375Z,8.54
2024-05-09T01:35:40.827Z,8.49
2024-05-09T01:38:08.432Z,8.34
2024-05-09T01:40:38.733Z,8.28
2024-05-09T01:43:10.756Z,8.25
2024-05-09T01:45:38.861Z,8.18
2024-05-09T01:48:05.987Z,8.16
2024-05-09T01:50:38.967Z,8.22
2024-05-09T01:53:10.180Z,8.15
2024-05-09T01:55:37.144Z,8.17
2024-05-09T01:58:03.828Z,8.18
2024-05-09T02:00:38.674Z,8.08
2024-05-09T02:03:10.515Z,8.05
2024-05-09T02:05:38.587Z,8.02
2024-05-09T02:08:06.428Z,7.91
2024-05-09T02:10:33.606Z,7.92
2024-05-09T02:13:00.579Z,7.94
2024-05-09T02:15:27.176Z,7.88
2024-05-09T02:17:54.145Z,7.89
2024-05-09T02:20:30.187Z,7.86
2024-05-09T02:23:04.597Z,7.87
2024-05-09T02:25:32.142Z,7.81
2024-05-09T02:27:58.882Z,7.79
2024-05-09T02:30:35.640Z,7.71
2024-05-09T02:33:06.822Z,7.76
2024-05-09T02:35:33.712Z,7.74
2024-05-09T02:38:00.451Z,7.72
2024-05-09T02:40:35.583Z,7.68
2024-05-09T02:43:05.558Z,7.63
2024-05-09T02:45:32.388Z,7.72
2024-05-09T02:47:59.300Z,7.69
2024-05-09T02:50:33.970Z,7.65
2024-05-09T02:53:05.610Z,7.59
2024-05-09T02:55:32.566Z,7.59
2024-05-09T02:57:59.240Z,7.55
2024-05-09T03:00:34.659Z,7.53
2024-05-09T03:03:08.546Z,7.47
2024-05-09T03:05:36.375Z,7.49
2024-05-09T03:08:03.424Z,7.47
2024-05-09T03:10:35.610Z,7.45
2024-05-09T03:13:14.389Z,7.48
2024-05-09T03:15:42.567Z,7.37
2024-05-09T03:18:09.683Z,7.27
2024-05-09T03:20:37.276Z,7.22
2024-05-09T03:23:05.696Z,7.16
2024-05-09T03:25:33.209Z,7.15
2024-05-09T03:28:00.035Z,7.15
2024-05-09T03:30:38.740Z,7.13
2024-05-09T03:33:18.029Z,7.18
2024-05-09T03:35:46.664Z,7.11
2024-05-09T03:38:13.760Z,7.07
2024-05-09T03:40:48.526Z,7.03
2024-05-09T03:43:16.287Z,7.02
2024-05-09T03:45:43.490Z,6.96
2024-05-09T03:48:10.577Z,6.99
2024-05-09T03:50:37.779Z,6.99
2024-05-09T03:53:05.100Z,7.00
2024-05-09T03:55:31.925Z,7.02
2024-05-09T03:57:58.790Z,7.02
2024-05-09T04:00:31.687Z,7.11
2024-05-09T04:03:06.274Z,7.15
2024-05-09T04:05:34.986Z,7.01
2024-05-09T04:08:02.105Z,6.99
2024-05-09T04:10:33.454Z,6.98
2024-05-09T04:13:01.876Z,7.11
2024-05-09T04:15:28.542Z,7.18
2024-05-09T04:17:55.353Z,7.23
2024-05-09T04:20:33.021Z,7.18
2024-05-09T04:23:06.040Z,7.26
2024-05-09T04:25:32.730Z,7.36
2024-05-09T04:27:59.358Z,7.26
2024-05-09T04:30:34.781Z,7.29
2024-05-09T04:33:07.077Z,7.37
2024-05-09T04:35:35.327Z,7.27
2024-05-09T04:38:02.118Z,7.51
2024-05-09T04:40:33.924Z,7.58
2024-05-09T04:43:03.738Z,7.73
2024-05-09T04:45:30.592Z,7.87
2024-05-09T04:47:57.523Z,7.87
2024-05-09T04:50:33.580Z,8.02
2024-05-09T04:53:05.097Z,8.41
2024-05-09T04:55:32.587Z,9.02
2024-05-09T04:57:59.169Z,9.39
2024-05-09T05:00:32.594Z,9.61
2024-05-09T05:03:10.165Z,9.22
2024-05-09T05:05:43.741Z,9.30
2024-05-09T05:08:20.357Z,8.58
2024-05-09T05:10:48.547Z,8.79
2024-05-09T05:13:18.136Z,8.76
2024-05-09T05:15:46.700Z,8.71
2024-05-09T05:18:15.117Z,8.69
2024-05-09T05:20:42.700Z,8.81
2024-05-09T05:23:14.503Z,8.80
2024-05-09T05:25:41.887Z,8.85
2024-05-09T05:28:09.390Z,9.21
2024-05-09T05:30:38.003Z,9.83
2024-05-09T05:33:06.693Z,9.46
2024-05-09T05:35:34.563Z,9.32
2024-05-09T05:38:01.879Z,9.30
2024-05-09T05:40:36.223Z,9.51
2024-05-09T05:43:09.357Z,9.62
2024-05-09T05:45:36.819Z,9.35
2024-05-09T05:48:05.922Z,9.33
2024-05-09T05:50:36.542Z,9.86
2024-05-09T05:53:15.721Z,10.09
2024-05-09T05:55:42.877Z,9.74
2024-05-09T05:58:10.770Z,10.42
2024-05-09T06:00:39.793Z,10.20
2024-05-09T06:03:08.736Z,10.25
2024-05-09T06:05:40.368Z,10.20
2024-05-09T06:08:07.942Z,10.28
2024-05-09T06:10:38.942Z,10.20
2024-05-09T06:13:08.861Z,10.60
2024-05-09T06:15:35.719Z,11.11
2024-05-09T06:18:06.220Z,11.05
2024-05-09T06:20:36.533Z,11.07
2024-05-09T06:23:09.152Z,11.09
2024-05-09T06:25:36.597Z,11.31
2024-05-09T06:28:03.991Z,11.55
2024-05-09T06:30:40.105Z,11.42
2024-05-09T06:33:11.160Z,11.09
2024-05-09T06:35:39.917Z,12.19
2024-05-09T06:38:09.581Z,12.12
2024-05-09T06:40:39.986Z,11.87
2024-05-09T06:43:12.954Z,11.54
2024-05-09T06:45:40.346Z,12.01
2024-05-09T06:48:09.132Z,12.80
2024-05-09T06:50:38.301Z,12.91
2024-05-09T06:53:07.159Z,12.88
2024-05-09T06:55:33.997Z,13.69
2024-05-09T06:58:00.955Z,14.33
2024-05-09T07:00:35.349Z,14.47
2024-05-09T07:03:16.488Z,13.50
2024-05-09T07:05:46.633Z,14.26
2024-05-09T07:08:14.612Z,14.37
2024-05-09T07:10:41.645Z,13.97
2024-05-09T07:13:11.424Z,13.97
2024-05-09T07:15:38.766Z,13.24
2024-05-09T07:18:17.785Z,13.44
2024-05-09T07:20:46.338Z,13.19
2024-05-09T07:23:13.340Z,12.86
2024-05-09T07:25:41.108Z,13.38
2024-05-09T07:28:18.552Z,13.89
2024-05-09T07:30:45.830Z,13.82
2024-05-09T07:33:18.006Z,13.86
2024-05-09T07:35:45.190Z,14.10
2024-05-09T07:38:11.945Z,14.61
2024-05-09T07:40:39.455Z,14.72
2024-05-09T07:43:08.341Z,14.83
2024-05-09T07:52:32.563Z,15.73
2024-05-09T07:55:53.918Z,16.08
2024-05-09T07:58:22.438Z,16.25
2024-05-09T08:00:49.770Z,15.80
2024-05-09T08:03:16.542Z,15.90
2024-05-09T08:05:43.302Z,15.84
2024-05-09T08:08:11.586Z,16.55
2024-05-09T08:10:38.270Z,16.83
2024-05-09T08:13:05.651Z,16.95
2024-05-09T08:15:32.261Z,17.05
2024-05-09T08:18:00.176Z,17.24
2024-05-09T08:20:31.231Z,17.39
2024-05-09T08:23:01.689Z,17.38
2024-05-09T08:25:28.438Z,17.54
2024-05-09T08:27:55.305Z,17.33
2024-05-09T08:30:29.801Z,17.34
2024-05-09T08:33:03.652Z,16.97
2024-05-09T08:35:30.432Z,16.84
2024-05-09T08:37:57.153Z,17.08
2024-05-09T08:40:30.894Z,17.53
2024-05-09T08:43:02.992Z,17.17
2024-05-09T08:45:30.286Z,17.24
2024-05-09T08:48:01.390Z,17.20
2024-05-09T08:50:35.931Z,17.22
2024-05-09T08:53:05.998Z,18.06
2024-05-09T08:55:32.852Z,18.06
2024-05-09T08:58:03.702Z,18.01
2024-05-09T09:00:36.846Z,17.80
2024-05-09T09:03:07.372Z,18.21
2024-05-09T09:05:36.593Z,17.89
2024-05-09T09:08:06.561Z,18.09
2024-05-09T09:10:33.645Z,18.63
2024-05-09T09:13:05.433Z,18.49
2024-05-09T09:15:32.657Z,18.56
2024-05-09T09:18:00.870Z,18.98
2024-05-09T09:20:35.647Z,18.09
2024-05-09T09:23:04.519Z,18.56
2024-05-09T09:25:31.699Z,18.25
2024-05-09T09:27:58.956Z,18.14
2024-05-09T09:30:36.437Z,18.60
2024-05-09T09:33:08.848Z,19.11
2024-05-09T09:35:38.316Z,18.27
2024-05-09T09:38:06.760Z,18.78
2024-05-09T09:40:39.097Z,19.42
2024-05-09T09:43:22.632Z,19.78
2024-05-09T09:45:51.038Z,19.64
2024-05-09T09:48:19.984Z,19.32
2024-05-09T09:50:47.616Z,19.03
2024-05-09T09:53:14.320Z,19.25
2024-05-09T09:55:42.039Z,18.46
2024-05-09T09:58:13.474Z,19.28
2024-05-09T10:00:41.832Z,19.21
2024-05-09T10:03:08.832Z,18.93
2024-05-09T10:05:36.457Z,18.55
2024-05-09T10:08:06.972Z,18.40
2024-05-09T10:10:35.736Z,18.48
2024-05-09T10:13:07.390Z,18.80
2024-05-09T10:15:48.362Z,19.30
2024-05-09T10:18:15.609Z,20.02
2024-05-09T10:20:46.555Z,19.88
2024-05-09T10:23:27.524Z,19.29
2024-05-09T10:26:06.694Z,19.89
2024-05-09T10:28:36.058Z,19.84
2024-05-09T10:31:13.773Z,20.64
2024-05-09T10:33:49.573Z,19.78
2024-05-09T10:36:26.624Z,19.38
2024-05-09T10:38:55.035Z,19.27
2024-05-09T10:41:23.763Z,19.78
2024-05-09T10:43:51.850Z,20.54
2024-05-09T10:46:19.635Z,19.50
2024-05-09T10:48:47.720Z,19.60
2024-05-09T10:51:14.844Z,19.71
2024-05-09T10:53:42.830Z,20.32
2024-05-09T10:56:10.151Z,20.34
2024-05-09T10:58:36.986Z,19.71
2024-05-09T11:01:06.998Z,19.99
2024-05-09T11:03:36.577Z,20.58
2024-05-09T11:06:04.070Z,21.34
2024-05-09T11:08:32.890Z,21.23
2024-05-09T11:11:00.505Z,21.01
2024-05-09T11:13:30.898Z,22.07
2024-05-09T11:15:59.353Z,21.15
2024-05-09T11:18:35.340Z,20.56
2024-05-09T11:21:12.989Z,20.94
2024-05-09T11:23:40.442Z,22.08
2024-05-09T11:26:07.231Z,22.19
2024-05-09T11:28:33.994Z,22.27
2024-05-09T11:31:09.853Z,22.20
2024-05-09T11:33:49.619Z,22.45
2024-05-09T11:36:19.549Z,22.96
2024-05-09T11:38:46.847Z,21.81
2024-05-09T11:41:18.055Z,20.91
2024-05-09T11:43:45.101Z,20.97
2024-05-09T11:46:12.084Z,20.96
2024-05-09T11:48:39.746Z,21.15
2024-05-09T11:51:06.759Z,21.74
2024-05-09T11:53:33.545Z,21.91
2024-05-09T11:56:02.899Z,22.46
2024-05-09T11:58:34.729Z,22.41
2024-05-09T12:01:12.647Z,21.60
2024-05-09T12:03:39.507Z,22.05
2024-05-09T12:06:06.651Z,22.17
2024-05-09T12:08:33.583Z,21.99
2024-05-09T12:11:00.551Z,21.27
2024-05-09T12:13:27.787Z,21.33
2024-05-09T12:15:54.700Z,21.33
2024-05-09T12:18:21.486Z,21.98
2024-05-09T12:20:50.392Z,22.49
2024-05-09T12:23:17.149Z,22.52
2024-05-09T12:25:46.119Z,22.90
2024-05-09T12:28:12.798Z,23.71
2024-05-09T12:30:42.076Z,23.42
2024-05-09T12:33:13.247Z,21.81
2024-05-09T12:35:44.037Z,21.75
2024-05-09T12:38:13.900Z,21.90
2024-05-09T12:40:40.662Z,21.74
2024-05-09T12:43:08.732Z,21.99
2024-05-09T12:45:36.555Z,21.72
2024-05-09T12:48:04.615Z,21.65
2024-05-09T12:50:33.607Z,21.04
2024-05-09T12:53:03.072Z,21.52
2024-05-09T12:55:37.237Z,21.02
2024-05-09T12:58:11.516Z,21.43
2024-05-09T13:00:38.716Z,21.88
2024-05-09T13:03:05.976Z,21.51
2024-05-09T13:05:32.818Z,22.43
2024-05-09T13:08:03.564Z,22.73
2024-05-09T13:10:32.775Z,22.20
2024-05-09T13:13:01.423Z,21.61
2024-05-09T13:15:30.114Z,21.26
2024-05-09T13:18:00.275Z,21.36
2024-05-09T13:20:33.512Z,21.16
2024-05-09T13:23:03.569Z,21.39
2024-05-09T13:25:30.258Z,22.22
2024-05-09T13:27:57.520Z,22.33
2024-05-09T13:32:56.191Z,22.76
2024-05-09T13:35:22.953Z,22.62
2024-05-09T13:37:49.784Z,22.13
2024-05-09T13:40:26.685Z,21.94
2024-05-09T13:42:56.853Z,22.51
2024-05-09T13:45:23.569Z,21.65
2024-05-09T13:47:50.444Z,21.19
2024-05-09T13:50:27.762Z,21.19
2024-05-09T13:53:00.138Z,20.65
2024-05-09T13:55:26.681Z,20.72
2024-05-09T13:57:53.551Z,20.84
2024-05-09T14:00:32.136Z,21.45
2024-05-09T14:03:06.822Z,22.07
2024-05-09T14:05:33.620Z,22.71
2024-05-09T14:08:00.998Z,22.46
2024-05-09T14:10:31.142Z,22.22
2024-05-09T14:12:58.881Z,23.00
2024-05-09T14:15:25.590Z,23.15
2024-05-09T14:17:52.604Z,23.23
2024-05-09T14:20:27.950Z,22.84
2024-05-09T14:22:58.370Z,22.79
2024-05-09T14:25:26.473Z,22.77
2024-05-09T14:27:53.539Z,22.15
2024-05-09T14:30:29.790Z,21.62
2024-05-09T14:33:01.571Z,21.24
2024-05-09T14:35:28.200Z,21.51
2024-05-09T14:37:54.915Z,20.74
2024-05-09T14:40:31.162Z,21.23
2024-05-09T14:43:06.454Z,21.86
2024-05-09T14:45:34.786Z,22.07
2024-05-09T14:48:02.264Z,21.84
2024-05-09T14:50:35.481Z,21.45
2024-05-09T14:53:05.945Z,21.46
2024-05-09T14:55:35.913Z,21.36
2024-05-09T14:58:03.559Z,21.52
2024-05-09T15:00:35.644Z,21.63
2024-05-09T15:03:03.968Z,21.88
2024-05-09T15:05:30.824Z,21.90
2024-05-09T15:07:58.213Z,22.11
2024-05-09T15:10:33.751Z,21.61
2024-05-09T15:13:04.521Z,22.20
2024-05-09T15:15:31.500Z,21.88
2024-05-09T15:17:58.878Z,21.28
2024-05-09T15:20:33.102Z,21.37
2024-05-09T15:23:02.896Z,21.79
2024-05-09T15:25:29.828Z,21.67
2024-05-09T15:27:56.842Z,21.46
2024-05-09T15:30:30.937Z,21.25
2024-05-09T15:33:00.990Z,20.86
2024-05-09T15:35:27.958Z,20.54
2024-05-09T15:37:55.551Z,20.95
2024-05-09T15:40:31.293Z,20.89
2024-05-09T15:43:06.239Z,21.35
2024-05-09T15:45:33.648Z,21.54
2024-05-09T15:48:00.543Z,21.85
2024-05-09T15:50:36.037Z,21.52
2024-05-09T15:53:07.717Z,21.64
2024-05-09T15:55:35.184Z,21.61
2024-05-09T15:58:03.223Z,21.68
2024-05-09T16:00:37.560Z,21.55
2024-05-09T16:03:08.623Z,21.42
2024-05-09T16:05:35.535Z,21.19
2024-05-09T16:08:02.615Z,21.13
2024-05-09T16:10:33.021Z,20.81
2024-05-09T16:13:01.741Z,20.79
2024-05-09T16:15:28.816Z,20.99
2024-05-09T16:17:56.314Z,20.87
2024-05-09T16:22:52.636Z,21.19
2024-05-09T16:25:19.418Z,21.04
2024-05-09T16:27:46.301Z,21.10
2024-05-09T16:30:20.994Z,20.81
2024-05-09T16:32:54.152Z,21.11
2024-05-09T16:35:20.880Z,21.46
2024-05-09T16:37:47.884Z,20.93
2024-05-09T16:40:22.195Z,20.73
2024-05-09T16:42:56.711Z,20.80
2024-05-09T16:45:23.409Z,20.27
2024-05-09T16:47:50.623Z,20.47
2024-05-09T16:50:25.780Z,20.41
2024-05-09T16:52:55.756Z,20.18
2024-05-09T16:55:22.495Z,20.50
2024-05-09T16:57:49.482Z,20.24
2024-05-09T17:00:25.237Z,20.36
2024-05-09T17:02:58.313Z,20.39
2024-05-09T17:05:25.249Z,20.29
2024-05-09T17:07:51.987Z,20.41
2024-05-09T17:10:26.702Z,20.33
2024-05-09T17:12:58.855Z,20.39
2024-05-09T17:15:25.863Z,20.38
2024-05-09T17:17:52.796Z,20.15
2024-05-09T17:20:29.299Z,19.81
2024-05-09T17:25:57.133Z,19.85
2024-05-09T17:28:24.067Z,20.16
2024-05-09T17:30:51.335Z,20.21
2024-05-09T17:33:18.722Z,20.14
2024-05-09T17:35:46.146Z,19.96
2024-05-09T17:38:14.455Z,19.54
2024-05-09T17:40:41.372Z,19.65
2024-05-09T17:43:10.542Z,19.29
2024-05-09T17:45:39.488Z,19.66
2024-05-09T17:48:08.260Z,19.42
2024-05-09T17:50:37.263Z,19.19
2024-05-09T17:53:08.435Z,19.44
2024-05-09T17:55:35.897Z,19.40
2024-05-09T17:58:04.288Z,19.25
2024-05-09T18:00:37.930Z,18.98
2024-05-09T18:03:10.907Z,18.87
2024-05-09T18:05:40.812Z,18.77
2024-05-09T18:08:08.846Z,19.31
2024-05-09T18:10:39.293Z,18.99
2024-05-09T18:13:09.015Z,18.71
2024-05-09T18:15:36.545Z,18.36
2024-05-09T18:18:04.335Z,18.47
2024-05-09T18:20:40.928Z,18.35
2024-05-09T18:23:11.889Z,18.55
2024-05-09T18:25:38.758Z,17.98
2024-05-09T18:28:06.957Z,17.59
2024-05-09T18:30:36.238Z,17.59
2024-05-09T18:33:06.434Z,17.40
2024-05-09T18:35:34.529Z,17.26
2024-05-09T18:38:06.513Z,17.05
2024-05-09T18:40:36.445Z,16.76
2024-05-09T18:43:07.203Z,16.64
2024-05-09T18:45:36.497Z,16.70
2024-05-09T18:48:05.842Z,16.53
2024-05-09T18:50:37.611Z,16.22
2024-05-09T18:53:07.388Z,15.56
2024-05-09T18:55:34.197Z,15.83
2024-05-09T18:58:03.559Z,15.81
2024-05-09T19:00:35.937Z,15.78
2024-05-09T19:03:09.732Z,15.40
2024-05-09T19:05:39.336Z,15.47
2024-05-09T19:08:10.009Z,15.43
2024-05-09T19:10:39.343Z,14.95
2024-05-09T19:13:11.098Z,14.98
2024-05-09T19:15:43.666Z,14.67
2024-05-09T19:18:12.888Z,14.95
2024-05-09T19:20:43.438Z,14.62
2024-05-09T19:23:12.176Z,14.99
2024-05-09T19:25:39.461Z,14.63
2024-05-09T19:28:07.191Z,14.54
2024-05-09T19:30:39.885Z,14.25
2024-05-09T19:33:11.135Z,14.36
2024-05-09T19:35:39.689Z,14.63
2024-05-09T19:38:07.192Z,14.34
2024-05-09T19:40:35.154Z,14.51
2024-05-09T19:43:03.681Z,14.39
2024-05-09T19:45:32.848Z,14.23
2024-05-09T19:48:00.525Z,14.16
2024-05-09T19:50:36.848Z,14.23
2024-05-09T19:53:09.479Z,14.18
2024-05-09T19:55:36.327Z,14.10
2024-05-09T19:58:05.370Z,14.01
2024-05-09T20:00:36.689Z,13.82
2024-05-09T20:03:06.121Z,13.76
2024-05-09T20:05:35.427Z,13.49
2024-05-09T20:08:02.440Z,13.83
2024-05-09T20:10:32.719Z,13.59
2024-05-09T20:13:02.128Z,13.74
2024-05-09T20:15:29.328Z,13.40
2024-05-09T20:17:56.388Z,12.95
2024-05-09T20:20:33.098Z,13.12
2024-05-09T20:23:06.045Z,12.96
2024-05-09T20:25:32.838Z,13.15
2024-05-09T20:27:59.484Z,12.91
2024-05-09T20:30:31.938Z,12.75
2024-05-09T20:33:02.944Z,12.73
2024-05-09T20:35:32.939Z,12.52
2024-05-09T20:38:01.939Z,12.48
2024-05-09T20:40:33.882Z,12.58
2024-05-09T20:43:04.458Z,12.43
2024-05-09T20:45:31.457Z,12.44
2024-05-09T20:47:58.394Z,12.32
2024-05-09T20:50:35.631Z,12.36
2024-05-09T20:53:14.262Z,12.32
2024-05-09T20:55:42.396Z,12.23
2024-05-09T20:58:11.160Z,12.16
2024-05-09T21:00:42.080Z,12.00
2024-05-09T21:03:13.828Z,12.07
2024-05-09T21:05:41.855Z,11.95
2024-05-09T21:08:08.948Z,11.60
2024-05-09T21:10:36.809Z,11.79
2024-05-09T21:13:04.694Z,11.58
2024-05-09T21:15:32.185Z,11.55
2024-05-09T21:17:59.756Z,11.66
2024-05-09T21:22:57.426Z,11.60
2024-05-09T21:25:24.317Z,11.44
2024-05-09T21:27:51.122Z,11.24
2024-05-09T21:30:26.823Z,11.35
2024-05-09T21:32:59.751Z,11.26
2024-05-09T21:35:26.625Z,10.99
2024-05-09T21:37:53.365Z,11.08
2024-05-09T21:40:30.687Z,11.21
2024-05-09T21:43:01.374Z,10.96
2024-05-09T21:45:28.238Z,10.89
2024-05-09T21:47:57.193Z,10.98
2024-05-09T21:50:31.850Z,10.94
2024-05-09T21:53:05.594Z,10.54
2024-05-09T21:55:33.534Z,10.75
2024-05-09T21:58:00.441Z,10.55
2024-05-09T22:00:34.725Z,10.67
2024-05-09T22:03:05.025Z,10.73
2024-05-09T22:05:32.212Z,10.75
2024-05-09T22:07:59.033Z,10.76
2024-05-09T22:10:30.695Z,10.63
2024-05-09T22:13:01.440Z,10.43
2024-05-09T22:15:28.290Z,10.29
2024-05-09T22:17:57.308Z,10.34
2024-05-09T22:20:33.087Z,10.46
2024-05-09T22:23:04.202Z,10.36
2024-05-09T22:25:32.126Z,10.37
2024-05-09T22:27:59.493Z,10.28
2024-05-09T22:30:33.735Z,10.24
2024-05-09T22:33:04.814Z,10.05
2024-05-09T22:35:31.516Z,10.11
2024-05-09T22:37:58.258Z,10.03
2024-05-09T22:40:37.438Z,9.99
2024-05-09T22:43:12.324Z,9.66
2024-05-09T22:45:39.458Z,9.78
2024-05-09T22:48:07.173Z,9.88
2024-05-09T22:50:34.086Z,9.69
2024-05-09T22:53:01.206Z,9.74
2024-05-09T22:55:28.286Z,9.83
2024-05-09T22:57:55.065Z,9.73
2024-05-09T23:00:29.432Z,9.57
2024-05-09T23:03:02.529Z,9.66
2024-05-09T23:05:30.623Z,9.48
2024-05-09T23:07:57.492Z,9.42
2024-05-09T23:10:32.103Z,9.43
2024-05-09T23:13:03.343Z,9.64
2024-05-09T23:15:30.223Z,9.53
2024-05-09T23:17:57.968Z,9.63
2024-05-09T23:20:33.691Z,9.68
2024-05-09T23:23:05.442Z,9.64
2024-05-09T23:25:32.061Z,9.57
2024-05-09T23:27:59.035Z,9.51
2024-05-09T23:30:33.779Z,9.17
2024-05-09T23:33:05.672Z,9.41
2024-05-09T23:35:32.503Z,9.35
2024-05-09T23:37:59.398Z,9.02
2024-05-09T23:40:37.031Z,9.19
2024-05-09T23:43:07.421Z,9.17
2024-05-09T23:45:34.897Z,9.14
2024-05-09T23:48:01.922Z,9.24
2024-05-09T23:50:36.467Z,9.06
2024-05-09T23:53:06.119Z,9.22
2024-05-09T23:55:33.736Z,9.09
2024-05-09T23:58:00.824Z,8.89
